Metar Flugplatz Niederstetten

ETHN 282220Z 24013KT 9999 FEW010 BKN022 01/M01 Q1003 WHT



Temperatur Niederstetten
1 Grad Celsius

QNH Niederstetten
1003
==============================================================

TAF Niederstetten:

TAF ETHN 291027Z 2911/3002 24010KT 9999 NSW FEW240 TEMPO 2911/2916 26012G22KT 9999 NSW SCT035 BKN240



Alle Angaben ohne Gewähr